Terminal Aerodrome Forecast
Issued by NWS Charleston, WV

Current Version | Previous Version | Graphics & Text | Print | Product List | Glossary On
Versions: 1 2 3 4 5 6 7 8 9 10 11 12 13 14 15 16 17 18 19 20 21 22 23 24 25
000
FTUS41 KRLX 201500 AAA
TAFBKW
TAF AMD
KBKW 201506Z 2015/2112 16007KT P6SM BKN070
     FM201600 15007KT P6SM -SHRA OVC040
     FM201700 19007KT P6SM SHRA OVC040
     FM201900 21007KT P6SM VCTS BKN040CB
     FM210000 14005KT P6SM BKN040
     FM210600 14004KT P6SM BKN010
     FM211100 VRB03KT P6SM SCT010=

USA.gov is the U.S. government's official web portal to all federal, state and local government web resources and services.